Main page
METAR-TAF:

METAR-TAF

Airports :

Luleå Airport

Luleå, Sweden

latitude: 65-33N, longitude: 022-08E, elevation: 17 m

Current weather observation

The report was made 20 minutes ago, at 01:50 UTC
Wind 6 kt from the North/Northeast
Temperature -7°C
Humidity 93%
Pressure 973 hPa
Visibility 10 km or more

METAR: ESPA 090150Z AUTO 02006KT 9999 OVC005/// M07/M08 Q0973

Time: 03:10 (02:10 UTC)

Forecast

The report was made 3 hours and 19 minutes ago, at 22:51 UTC
Forecast valid from 08 at 22 UTC to 08 at 24 UTC
Wind 4 kt from the North
Visibility 10 km or more
Broken clouds at a height of 400 ft
Probability 40%
from 08 at 22 UTC to 08 at 24 UTC
Broken clouds at a height of 1500 ft

TAF: ESPA 082251Z 0822/0824 36004KT 9999 BKN004 PROB40 0822/0824 BKN015

Weather observations and forecasts of more than 4000 airports (METAR and TAF reports).

The available stations are represented by yellow and red dots on the map.

Hover mouse over dot to see the name of the station.

Then click to see weather observations and forecasts.

To change the map : click on the green buttons with a black cross to zoom in, on the green button with a dash to zoom out, or on the green arrows for adjacent maps.


METAR-TAF: